createdAt,value
2017-09-16T00:00:25.807Z,101113.58
2017-09-16T00:02:54.110Z,101110.90
2017-09-16T00:05:22.414Z,101111.13
2017-09-16T00:07:51.451Z,101114.62
2017-09-16T00:10:19.733Z,101110.19
2017-09-16T00:12:48.029Z,101111.52
2017-09-16T00:15:16.322Z,101107.51
2017-09-16T00:17:44.601Z,101115.42
2017-09-16T00:20:12.890Z,101108.63
2017-09-16T00:22:41.168Z,101100.09
2017-09-16T00:25:09.463Z,101108.64
2017-09-16T00:27:37.748Z,101110.39
2017-09-16T00:30:06.806Z,101108.31
2017-09-16T00:32:35.102Z,101106.80
2017-09-16T00:35:03.382Z,101104.73
2017-09-16T00:37:31.677Z,101104.84
2017-09-16T00:39:59.969Z,101104.33
2017-09-16T00:42:28.259Z,101103.30
2017-09-16T00:44:57.307Z,101099.38
2017-09-16T00:47:25.581Z,101088.47
2017-09-16T00:49:53.867Z,101100.00
2017-09-16T00:52:22.148Z,101097.42
2017-09-16T00:54:50.434Z,101095.67
2017-09-16T00:57:19.488Z,101089.19
2017-09-16T00:59:48.528Z,101099.58
2017-09-16T01:02:16.820Z,101098.44
2017-09-16T01:04:45.118Z,101096.17
2017-09-16T01:07:13.409Z,101096.91
2017-09-16T01:09:41.688Z,101104.12
2017-09-16T01:12:09.978Z,101102.45
2017-09-16T01:14:39.032Z,101101.01
2017-09-16T01:17:07.314Z,101103.58
2017-09-16T01:19:35.595Z,101103.48
2017-09-16T01:22:03.900Z,101098.95
2017-09-16T01:24:32.181Z,101101.43
2017-09-16T01:27:00.466Z,101100.30
2017-09-16T01:29:28.748Z,101099.16
2017-09-16T01:31:57.040Z,101093.80
2017-09-16T01:34:25.329Z,101099.05
2017-09-16T01:36:54.383Z,101099.45
2017-09-16T01:39:22.663Z,101098.93
2017-09-16T01:41:50.954Z,101091.44
2017-09-16T01:44:19.246Z,101090.91
2017-09-16T01:46:47.525Z,101095.22
2017-09-16T01:49:15.798Z,101088.21
2017-09-16T01:51:44.079Z,101079.98
2017-09-16T01:54:12.368Z,101084.22
2017-09-16T01:56:40.641Z,101071.24
2017-09-16T01:59:08.918Z,101072.77
2017-09-16T02:01:37.212Z,101068.42
2017-09-16T02:04:05.509Z,101060.92
2017-09-16T02:06:33.786Z,101056.41
2017-09-16T02:09:02.084Z,101052.09
2017-09-16T02:11:31.129Z,101053.96
2017-09-16T02:13:59.443Z,101051.19
2017-09-16T02:16:27.731Z,101057.26
2017-09-16T02:18:56.017Z,101057.97
2017-09-16T02:21:25.062Z,101057.34
2017-09-16T02:23:53.348Z,101061.95
2017-09-16T02:26:21.643Z,101057.45
2017-09-16T02:28:49.909Z,101060.41
2017-09-16T02:31:18.218Z,101066.08
2017-09-16T02:33:46.507Z,101062.88
2017-09-16T02:36:14.792Z,101067.09
2017-09-16T02:38:43.112Z,101063.38
2017-09-16T02:41:11.404Z,101067.39
2017-09-16T02:43:39.703Z,101058.66
2017-09-16T02:46:08.744Z,101056.20
2017-09-16T02:48:37.791Z,101059.59
2017-09-16T02:51:06.074Z,101059.50
2017-09-16T02:53:34.363Z,101059.20
2017-09-16T02:56:02.653Z,101059.48
2017-09-16T02:58:30.943Z,101054.13
2017-09-16T03:00:59.223Z,101046.63
2017-09-16T03:03:27.511Z,101050.75
2017-09-16T03:05:55.804Z,101053.30
2017-09-16T03:08:24.094Z,101052.98
2017-09-16T03:10:53.181Z,101044.35
2017-09-16T03:13:22.241Z,101045.06
2017-09-16T03:15:50.521Z,101045.28
2017-09-16T03:18:18.849Z,101038.98
2017-09-16T03:20:47.930Z,101039.10
2017-09-16T03:23:16.225Z,101043.23
2017-09-16T03:25:44.503Z,101040.66
2017-09-16T03:28:12.796Z,101039.13
2017-09-16T03:30:41.852Z,101035.75
2017-09-16T03:33:10.133Z,101030.58
2017-09-16T03:35:38.414Z,101035.41
2017-09-16T03:38:06.702Z,101036.34
2017-09-16T03:40:34.986Z,101031.91
2017-09-16T03:43:03.268Z,101028.31
2017-09-16T03:45:31.551Z,101027.31
2017-09-16T03:47:59.833Z,101026.48
2017-09-16T03:50:28.112Z,101026.39
2017-09-16T03:52:56.394Z,101023.91
2017-09-16T03:55:24.684Z,101016.50
2017-09-16T03:57:52.960Z,101019.59
2017-09-16T04:00:21.267Z,101012.59
2017-09-16T04:02:50.307Z,101016.29
2017-09-16T04:05:18.598Z,101012.89
2017-09-16T04:07:46.896Z,101013.00
2017-09-16T04:10:15.184Z,101012.39
2017-09-16T04:12:43.463Z,101011.16
2017-09-16T04:15:11.762Z,101009.72
2017-09-16T04:17:40.039Z,101008.68
2017-09-16T04:20:08.323Z,101021.33
2017-09-16T04:22:36.623Z,101014.86
2017-09-16T04:25:05.663Z,101019.08
2017-09-16T04:27:33.939Z,101011.77
2017-09-16T04:30:02.228Z,101011.16
2017-09-16T04:32:30.512Z,101008.48
2017-09-16T04:34:58.812Z,101010.12
2017-09-16T04:37:27.087Z,101013.30
2017-09-16T04:39:55.371Z,101015.05
2017-09-16T04:42:23.683Z,101016.70
2017-09-16T04:44:52.741Z,101017.64
2017-09-16T04:47:21.016Z,101021.14
2017-09-16T04:49:49.306Z,101012.70
2017-09-16T04:52:17.636Z,101014.75
2017-09-16T04:54:45.929Z,101017.22
2017-09-16T04:57:14.203Z,101013.19
2017-09-16T04:59:42.486Z,101015.14
2017-09-16T05:02:10.798Z,101015.24
2017-09-16T05:04:39.081Z,101013.91
2017-09-16T05:07:07.382Z,101014.13
2017-09-16T05:09:35.685Z,101016.16
2017-09-16T05:12:04.723Z,101012.87
2017-09-16T05:14:33.002Z,101007.13
2017-09-16T05:17:01.283Z,101007.84
2017-09-16T05:19:29.575Z,101009.70
2017-09-16T05:21:57.860Z,101012.37
2017-09-16T05:24:26.146Z,101015.34
2017-09-16T05:26:54.442Z,101019.99
2017-09-16T05:29:22.733Z,101018.25
2017-09-16T05:31:51.776Z,101013.92
2017-09-16T05:34:20.083Z,101015.47
2017-09-16T05:36:48.385Z,101010.22
2017-09-16T05:39:16.659Z,101019.06
2017-09-16T05:41:44.954Z,101015.14
2017-09-16T05:44:13.247Z,101021.21
2017-09-16T05:46:41.548Z,101025.12
2017-09-16T05:49:10.606Z,101021.73
2017-09-16T05:51:38.889Z,101025.14
2017-09-16T05:54:07.187Z,101025.96
2017-09-16T05:56:35.490Z,101029.97
2017-09-16T05:59:04.534Z,101029.56
2017-09-16T06:01:32.820Z,101031.62
2017-09-16T06:04:01.106Z,101030.71
2017-09-16T06:06:29.421Z,101030.28
2017-09-16T06:08:58.493Z,101034.41
2017-09-16T06:11:26.782Z,101029.39
2017-09-16T06:13:55.087Z,101033.08
2017-09-16T06:16:24.137Z,101040.09
2017-09-16T06:18:52.425Z,101034.00
2017-09-16T06:21:20.723Z,101043.58
2017-09-16T06:23:49.046Z,101045.95
2017-09-16T06:26:17.327Z,101048.33
2017-09-16T06:28:45.612Z,101046.25
2017-09-16T06:31:13.907Z,101047.39
2017-09-16T06:33:42.209Z,101051.83
2017-09-16T06:36:10.496Z,101047.58
2017-09-16T06:38:38.774Z,101050.26
2017-09-16T06:41:07.068Z,101054.08
2017-09-16T06:43:35.352Z,101055.62
2017-09-16T06:46:03.657Z,101059.13
2017-09-16T06:48:32.716Z,101060.03
2017-09-16T06:51:01.012Z,101060.86
2017-09-16T06:53:29.314Z,101065.20
2017-09-16T06:55:58.377Z,101067.34
2017-09-16T06:58:26.664Z,101066.55
2017-09-16T07:00:54.950Z,101073.42
2017-09-16T07:03:23.253Z,101072.20
2017-09-16T07:05:52.332Z,101075.78
2017-09-16T07:08:21.375Z,101080.52
2017-09-16T07:10:49.655Z,101084.24
2017-09-16T07:13:17.952Z,101085.58
2017-09-16T07:15:46.238Z,101088.64
2017-09-16T07:18:14.534Z,101094.52
2017-09-16T07:20:42.839Z,101092.36
2017-09-16T07:23:11.121Z,101095.41
2017-09-16T07:25:39.413Z,101090.98
2017-09-16T07:28:07.703Z,101090.26
2017-09-16T07:30:36.756Z,101096.41
2017-09-16T07:33:05.044Z,101093.63
2017-09-16T07:35:33.362Z,101091.22
2017-09-16T07:38:03.134Z,101092.86
2017-09-16T07:40:31.440Z,101095.50
2017-09-16T07:42:59.727Z,101090.02
2017-09-16T07:45:28.017Z,101095.48
2017-09-16T07:47:56.332Z,101100.18
2017-09-16T07:50:24.730Z,101101.30
2017-09-16T07:52:53.080Z,101105.53
2017-09-16T07:55:22.180Z,101107.96
2017-09-16T07:57:51.233Z,101106.30
2017-09-16T08:00:19.548Z,101106.34
2017-09-16T08:02:48.634Z,101110.40
2017-09-16T08:05:16.991Z,101109.22
2017-09-16T08:07:45.334Z,101108.72
2017-09-16T08:10:14.461Z,101112.91
2017-09-16T08:12:42.776Z,101111.61
2017-09-16T08:15:11.852Z,101110.05
2017-09-16T08:17:40.156Z,101116.32
2017-09-16T08:20:09.834Z,101114.83
2017-09-16T08:22:38.442Z,101111.08
2017-09-16T08:25:06.755Z,101113.55
2017-09-16T08:27:36.042Z,101117.14
2017-09-16T08:30:04.381Z,101116.66
2017-09-16T08:32:32.882Z,101123.27
2017-09-16T08:35:01.416Z,101122.73
2017-09-16T08:37:30.680Z,101119.27
2017-09-16T08:39:58.988Z,101118.70
2017-09-16T08:42:27.385Z,101127.12
2017-09-16T08:44:56.605Z,101123.59
2017-09-16T08:47:25.057Z,101118.01
2017-09-16T08:49:53.357Z,101124.33
2017-09-16T08:52:22.422Z,101125.43
2017-09-16T08:54:50.834Z,101124.27
2017-09-16T08:57:19.874Z,101131.31
2017-09-16T08:59:48.176Z,101123.75
2017-09-16T09:02:16.494Z,101125.94
2017-09-16T09:04:45.541Z,101127.89
2017-09-16T09:07:13.833Z,101127.28
2017-09-16T09:09:42.154Z,101129.77
2017-09-16T09:12:11.233Z,101127.83
2017-09-16T09:14:39.588Z,101121.09
2017-09-16T09:17:07.910Z,101123.55
2017-09-16T09:19:36.980Z,101114.95
2017-09-16T09:22:06.075Z,101123.95
2017-09-16T09:24:34.358Z,101124.96
2017-09-16T09:27:02.657Z,101135.33
2017-09-16T09:29:30.958Z,101126.33
2017-09-16T09:32:00.028Z,101129.54
2017-09-16T09:34:28.311Z,101130.39
2017-09-16T09:36:56.621Z,101134.39
2017-09-16T09:39:25.714Z,101131.87
2017-09-16T09:41:54.110Z,101130.61
2017-09-16T09:44:23.202Z,101131.14
2017-09-16T09:46:52.261Z,101126.69
2017-09-16T09:49:20.556Z,101132.97
2017-09-16T09:51:48.859Z,101136.91
2017-09-16T09:54:17.209Z,101131.41
2017-09-16T09:56:45.625Z,101135.77
2017-09-16T09:59:13.912Z,101139.63
2017-09-16T10:01:43.026Z,101148.48
2017-09-16T10:04:11.468Z,101144.69
2017-09-16T10:06:39.913Z,101141.63
2017-09-16T10:09:08.254Z,101138.23
2017-09-16T10:11:37.337Z,101138.02
2017-09-16T10:14:05.739Z,101143.36
2017-09-16T10:16:34.122Z,101141.13
2017-09-16T10:19:03.195Z,101142.20
2017-09-16T10:21:31.500Z,101144.82
2017-09-16T10:24:00.588Z,101142.84
2017-09-16T10:26:28.875Z,101140.48
2017-09-16T10:28:57.177Z,101139.40
2017-09-16T10:31:26.247Z,101142.80
2017-09-16T10:33:54.527Z,101143.66
2017-09-16T10:36:22.843Z,101148.26
2017-09-16T10:38:51.910Z,101152.73
2017-09-16T10:41:20.229Z,101153.38
2017-09-16T10:43:48.527Z,101153.97
2017-09-16T10:46:16.828Z,101150.60
2017-09-16T10:48:45.133Z,101153.59
2017-09-16T10:51:13.448Z,101151.27
2017-09-16T10:53:42.499Z,101143.21
2017-09-16T10:56:10.798Z,101144.55
2017-09-16T10:58:39.140Z,101151.40
2017-09-16T11:01:07.469Z,101150.77
2017-09-16T11:03:35.767Z,101146.92
2017-09-16T11:06:04.819Z,101144.63
2017-09-16T11:08:33.102Z,101149.14
2017-09-16T11:11:01.390Z,101149.01
2017-09-16T11:13:29.703Z,101147.70
2017-09-16T11:15:58.768Z,101147.95
2017-09-16T11:18:27.077Z,101152.12
2017-09-16T11:20:55.368Z,101147.94
2017-09-16T11:23:23.695Z,101153.77
2017-09-16T11:25:52.105Z,101149.39
2017-09-16T11:28:20.428Z,101152.79
2017-09-16T11:30:49.534Z,101150.80
2017-09-16T11:33:17.838Z,101149.64
2017-09-16T11:35:46.154Z,101145.27
2017-09-16T11:38:14.498Z,101144.63
2017-09-16T11:40:42.901Z,101152.03
2017-09-16T11:43:11.259Z,101155.41
2017-09-16T11:45:39.595Z,101150.48
2017-09-16T11:48:08.662Z,101153.89
2017-09-16T11:50:36.957Z,101147.69
2017-09-16T11:53:05.273Z,101149.84
2017-09-16T11:55:33.600Z,101153.80
2017-09-16T11:58:01.880Z,101156.38
2017-09-16T12:00:30.179Z,101153.06
2017-09-16T12:02:58.465Z,101155.71
2017-09-16T12:05:26.771Z,101153.08
2017-09-16T12:07:55.840Z,101154.24
2017-09-16T12:10:24.140Z,101152.21
2017-09-16T12:12:52.440Z,101145.84
2017-09-16T12:15:21.492Z,101151.08
2017-09-16T12:17:49.779Z,101145.97
2017-09-16T12:20:18.074Z,101155.91
2017-09-16T12:22:46.364Z,101154.19
2017-09-16T12:25:14.649Z,101156.70
2017-09-16T12:27:42.954Z,101148.93
2017-09-16T12:30:12.021Z,101156.63
2017-09-16T12:32:40.311Z,101151.22
2017-09-16T12:35:09.386Z,101150.45
2017-09-16T12:37:37.664Z,101156.20
2017-09-16T12:40:05.993Z,101164.16
2017-09-16T12:42:35.039Z,101159.94
2017-09-16T12:45:03.328Z,101160.34
2017-09-16T12:47:31.620Z,101158.47
2017-09-16T12:49:59.926Z,101157.29
2017-09-16T12:52:28.976Z,101162.34
2017-09-16T12:54:57.405Z,101158.61
2017-09-16T12:57:26.455Z,101152.13
2017-09-16T12:59:54.741Z,101157.27
2017-09-16T13:02:23.106Z,101153.98
2017-09-16T13:04:51.399Z,101150.98
2017-09-16T13:07:19.690Z,101150.44
2017-09-16T13:09:48.009Z,101151.28
2017-09-16T13:12:17.109Z,101147.53
2017-09-16T13:14:46.216Z,101144.09
2017-09-16T13:17:15.438Z,101137.00
2017-09-16T13:19:43.799Z,101145.16
2017-09-16T13:22:12.858Z,101135.57
2017-09-16T13:24:41.170Z,101136.39
2017-09-16T13:27:09.464Z,101131.87
2017-09-16T13:29:38.515Z,101137.41
2017-09-16T13:32:06.810Z,101144.01
2017-09-16T13:34:35.116Z,101133.27
2017-09-16T13:37:04.167Z,101138.65
2017-09-16T13:39:32.457Z,101139.34
2017-09-16T13:42:00.771Z,101139.59
2017-09-16T13:44:29.831Z,101138.12
2017-09-16T13:46:58.114Z,101135.08
2017-09-16T13:49:26.412Z,101132.91
2017-09-16T13:51:54.698Z,101136.16
2017-09-16T13:54:22.976Z,101135.39
2017-09-16T13:56:51.319Z,101134.84
2017-09-16T13:59:19.607Z,101137.30
2017-09-16T14:01:47.893Z,101133.03
2017-09-16T14:04:16.190Z,101143.61
2017-09-16T14:06:44.512Z,101133.59
2017-09-16T14:09:13.562Z,101136.30
2017-09-16T14:11:41.879Z,101137.11
2017-09-16T14:14:10.964Z,101144.73
2017-09-16T14:16:39.261Z,101143.22
2017-09-16T14:19:08.363Z,101141.94
2017-09-16T14:21:37.422Z,101139.98
2017-09-16T14:24:05.755Z,101145.63
2017-09-16T14:26:34.058Z,101145.58
2017-09-16T14:29:02.426Z,101146.34
2017-09-16T14:31:30.831Z,101151.92
2017-09-16T14:33:59.159Z,101144.45
2017-09-16T14:36:27.463Z,101149.55
2017-09-16T14:38:56.548Z,101148.64
2017-09-16T14:41:24.846Z,101154.63
2017-09-16T14:43:53.191Z,101148.28
2017-09-16T14:46:21.498Z,101147.66
2017-09-16T14:48:50.575Z,101151.13
2017-09-16T14:51:18.874Z,101153.94
2017-09-16T14:56:21.656Z,101150.79
2017-09-16T14:58:49.935Z,101150.09
2017-09-16T15:01:18.222Z,101149.55
2017-09-16T15:03:46.537Z,101151.55
2017-09-16T15:06:14.855Z,101154.27
2017-09-16T15:08:43.192Z,101151.78
2017-09-16T15:11:12.295Z,101155.03
2017-09-16T15:13:41.398Z,101157.73
2017-09-16T15:16:10.454Z,101155.98
2017-09-16T15:18:38.748Z,101159.14
2017-09-16T15:21:07.046Z,101157.55
2017-09-16T15:23:36.143Z,101162.37
2017-09-16T15:26:04.439Z,101159.55
2017-09-16T15:28:33.511Z,101153.78
2017-09-16T15:31:01.817Z,101155.98
2017-09-16T15:33:30.877Z,101159.96
2017-09-16T15:35:59.155Z,101156.27
2017-09-16T15:38:27.532Z,101166.15
2017-09-16T15:40:55.832Z,101158.17
2017-09-16T15:43:24.143Z,101158.35
2017-09-16T15:45:53.216Z,101162.34
2017-09-16T15:48:21.507Z,101163.39
2017-09-16T15:50:49.794Z,101162.93
2017-09-16T15:53:18.832Z,101167.62
2017-09-16T15:55:47.134Z,101165.84
2017-09-16T15:58:15.427Z,101167.26
2017-09-16T16:00:43.730Z,101174.56
2017-09-16T16:03:15.987Z,101170.40
2017-09-16T16:05:45.005Z,101175.70
2017-09-16T16:08:14.084Z,101175.30
2017-09-16T16:10:42.431Z,101177.95
2017-09-16T16:13:10.750Z,101173.55
2017-09-16T16:15:39.103Z,101176.60
2017-09-16T16:18:07.410Z,101175.77
2017-09-16T16:20:35.700Z,101185.48
2017-09-16T16:23:03.998Z,101189.07
2017-09-16T16:25:33.051Z,101191.41
2017-09-16T16:28:01.335Z,101187.85
2017-09-16T16:30:29.642Z,101193.59
2017-09-16T16:32:57.928Z,101189.30
2017-09-16T16:35:27.004Z,101193.45
2017-09-16T16:37:55.314Z,101188.53
2017-09-16T16:40:24.398Z,101198.77
2017-09-16T16:42:52.698Z,101194.17
2017-09-16T16:45:21.758Z,101198.89
2017-09-16T16:47:50.051Z,101196.28
2017-09-16T16:50:18.341Z,101197.25
2017-09-16T16:52:46.651Z,101194.78
2017-09-16T16:55:15.710Z,101208.80
2017-09-16T16:57:44.004Z,101203.94
2017-09-16T17:00:12.332Z,101207.44
2017-09-16T17:02:40.640Z,101214.64
2017-09-16T17:05:08.931Z,101207.71
2017-09-16T17:07:37.244Z,101214.69
2017-09-16T17:10:06.293Z,101213.05
2017-09-16T17:12:34.587Z,101219.64
2017-09-16T17:15:02.901Z,101216.98
2017-09-16T17:17:31.960Z,101220.53
2017-09-16T17:20:00.271Z,101218.69
2017-09-16T17:22:28.609Z,101218.22
2017-09-16T17:24:56.905Z,101221.27
2017-09-16T17:27:25.205Z,101219.55
2017-09-16T17:29:53.520Z,101222.70
2017-09-16T17:32:21.816Z,101222.45
2017-09-16T17:34:50.110Z,101220.97
2017-09-16T17:37:18.402Z,101222.77
2017-09-16T17:39:46.692Z,101224.52
2017-09-16T17:42:14.997Z,101232.91
2017-09-16T17:44:43.294Z,101238.34
2017-09-16T17:47:12.356Z,101237.16
2017-09-16T17:49:40.684Z,101237.42
2017-09-16T17:52:09.750Z,101243.11
2017-09-16T17:54:38.096Z,101237.97
2017-09-16T17:57:06.503Z,101246.30
2017-09-16T17:59:34.815Z,101241.45
2017-09-16T18:02:03.131Z,101241.28
2017-09-16T18:04:31.425Z,101238.95
2017-09-16T18:06:59.732Z,101240.31
2017-09-16T18:09:28.020Z,101251.59
2017-09-16T18:11:56.312Z,101253.61
2017-09-16T18:14:24.619Z,101255.06
2017-09-16T18:16:53.699Z,101255.50
2017-09-16T18:19:21.986Z,101262.88
2017-09-16T18:21:50.294Z,101254.52
2017-09-16T18:24:18.600Z,101260.41
2017-09-16T18:26:46.894Z,101265.69
2017-09-16T18:29:15.202Z,101273.23
2017-09-16T18:31:43.494Z,101265.53
2017-09-16T18:34:12.596Z,101271.56
2017-09-16T18:36:41.661Z,101278.70
2017-09-16T18:39:09.989Z,101273.89
2017-09-16T18:41:39.055Z,101277.37
2017-09-16T18:44:07.355Z,101282.57
2017-09-16T18:46:36.430Z,101281.13
2017-09-16T18:49:04.728Z,101279.38
2017-09-16T18:51:33.808Z,101281.27
2017-09-16T18:54:02.107Z,101287.45
2017-09-16T18:56:30.395Z,101286.94
2017-09-16T18:58:58.708Z,101283.73
2017-09-16T19:01:27.020Z,101285.59
2017-09-16T19:03:55.363Z,101287.55
2017-09-16T19:06:24.444Z,101285.28
2017-09-16T19:08:53.619Z,101284.70
2017-09-16T19:11:22.033Z,101291.20
2017-09-16T19:13:51.113Z,101294.49
2017-09-16T19:16:19.419Z,101285.11
2017-09-16T19:18:47.781Z,101290.87
2017-09-16T19:21:16.163Z,101288.22
2017-09-16T19:23:44.473Z,101293.69
2017-09-16T19:26:13.532Z,101301.42
2017-09-16T19:28:41.853Z,101297.30
2017-09-16T19:31:10.934Z,101300.98
2017-09-16T19:33:39.989Z,101308.62
2017-09-16T19:36:08.281Z,101309.75
2017-09-16T19:38:36.634Z,101311.72
2017-09-16T19:41:04.923Z,101308.52
2017-09-16T19:43:33.236Z,101306.55
2017-09-16T19:46:01.546Z,101307.69
2017-09-16T19:48:30.606Z,101306.06
2017-09-16T19:50:58.915Z,101304.83
2017-09-16T19:53:27.253Z,101308.64
2017-09-16T19:55:56.282Z,101306.47
2017-09-16T19:58:24.615Z,101308.84
2017-09-16T20:00:52.907Z,101306.36
2017-09-16T20:03:21.217Z,101316.36
2017-09-16T20:05:49.530Z,101311.52
2017-09-16T20:08:18.607Z,101315.95
2017-09-16T20:10:46.913Z,101325.13
2017-09-16T20:13:15.994Z,101325.56
2017-09-16T20:15:44.269Z,101313.69
2017-09-16T20:18:12.568Z,101324.72
2017-09-16T20:20:41.651Z,101325.45
2017-09-16T20:23:09.949Z,101323.69
2017-09-16T20:25:39.012Z,101323.05
2017-09-16T20:28:08.947Z,101324.83
2017-09-16T20:30:37.243Z,101331.30
2017-09-16T20:33:05.565Z,101330.98
2017-09-16T20:35:33.917Z,101331.28
2017-09-16T20:38:03.140Z,101330.07
2017-09-16T20:40:31.551Z,101330.07
2017-09-16T20:42:59.867Z,101334.38
2017-09-16T20:45:29.051Z,101334.60
2017-09-16T20:47:57.409Z,101330.27
2017-09-16T20:50:25.746Z,101327.39
2017-09-16T20:52:54.830Z,101334.17
2017-09-16T20:55:23.158Z,101330.05
2017-09-16T20:57:51.479Z,101328.30
2017-09-16T21:00:19.789Z,101335.00
2017-09-16T21:02:48.867Z,101338.30
2017-09-16T21:05:17.211Z,101334.91
2017-09-16T21:07:45.505Z,101332.03
2017-09-16T21:10:13.801Z,101336.88
2017-09-16T21:12:42.115Z,101333.58
2017-09-16T21:15:10.405Z,101343.79
2017-09-16T21:17:39.471Z,101342.96
2017-09-16T21:20:07.781Z,101343.17
2017-09-16T21:22:36.853Z,101348.44
2017-09-16T21:25:05.157Z,101338.42
2017-09-16T21:27:34.258Z,101343.27
2017-09-16T21:30:03.331Z,101342.84
2017-09-16T21:32:31.633Z,101339.22
2017-09-16T21:34:59.944Z,101348.40
2017-09-16T21:37:28.247Z,101341.78
2017-09-16T21:39:56.563Z,101345.28
2017-09-16T21:42:24.869Z,101348.28
2017-09-16T21:44:53.937Z,101354.45
2017-09-16T21:47:22.252Z,101354.14
2017-09-16T21:49:51.307Z,101352.69
2017-09-16T21:52:19.616Z,101351.34
2017-09-16T21:54:47.934Z,101352.58
2017-09-16T21:57:16.238Z,101358.14
2017-09-16T21:59:44.553Z,101355.36
2017-09-16T22:02:12.861Z,101358.77
2017-09-16T22:04:41.939Z,101365.27
2017-09-16T22:07:10.259Z,101363.10
2017-09-16T22:09:38.561Z,101363.71
2017-09-16T22:12:06.932Z,101365.05
2017-09-16T22:14:35.227Z,101374.01
2017-09-16T22:17:03.533Z,101364.32
2017-09-16T22:19:31.879Z,101363.59
2017-09-16T22:22:00.241Z,101364.20
2017-09-16T22:24:29.328Z,101361.38
2017-09-16T22:26:58.461Z,101361.91
2017-09-16T22:29:26.758Z,101355.19
2017-09-16T22:31:55.060Z,101356.83
2017-09-16T22:34:23.372Z,101357.02
2017-09-16T22:36:52.451Z,101358.56
2017-09-16T22:39:20.751Z,101354.14
2017-09-16T22:41:49.822Z,101352.47
2017-09-16T22:44:18.124Z,101354.49
2017-09-16T22:46:47.207Z,101356.77
2017-09-16T22:49:15.508Z,101356.94
2017-09-16T22:51:44.571Z,101358.67
2017-09-16T22:54:12.887Z,101359.70
2017-09-16T22:56:41.946Z,101361.84
2017-09-16T22:59:10.243Z,101367.37
2017-09-16T23:01:38.534Z,101366.33
2017-09-16T23:04:06.832Z,101371.43
2017-09-16T23:06:35.120Z,101370.48
2017-09-16T23:09:04.201Z,101374.20
2017-09-16T23:11:32.492Z,101365.52
2017-09-16T23:14:01.555Z,101374.56
2017-09-16T23:16:29.850Z,101372.05
2017-09-16T23:18:58.137Z,101371.61
2017-09-16T23:21:26.446Z,101364.83
2017-09-16T23:23:55.506Z,101369.45
2017-09-16T23:26:23.806Z,101363.97
2017-09-16T23:28:52.106Z,101364.16
2017-09-16T23:31:21.182Z,101364.74
2017-09-16T23:33:49.474Z,101364.55
2017-09-16T23:36:18.539Z,101359.80
2017-09-16T23:38:46.855Z,101368.12
2017-09-16T23:41:15.150Z,101359.23
2017-09-16T23:43:44.206Z,101368.56
2017-09-16T23:46:12.508Z,101370.82
2017-09-16T23:48:40.813Z,101372.34
2017-09-16T23:51:09.871Z,101366.14
2017-09-16T23:53:38.175Z,101364.99
2017-09-16T23:56:07.273Z,101368.55
2017-09-16T23:58:36.347Z,101369.60
